Flag for Australia

Past Weather in Sydney Central Business District, New South Wales, Australia — Yesterday and Last 2 Weeks

Currently: 57 °F. Passing clouds. (Weather station: Sydney Airport, Australia). See more current weather

Past Weather in Sydney Central Business District — Graph

°F

Sydney Central Business District Temperature Yesterday

Maximum temperature yesterday: 68 °F (at 12:30 pm)
Minimum temperature yesterday: 52 °F (at 6:00 am)
Average temperature yesterday: 60 °F

High & Low Weather Summary for the Past Weeks

 TemperatureHumidityPressure
High73 °F (May 15, 2:30 pm)100% (May 13, 3:17 am)30.39 "Hg (May 13, 3:17 am)
Low48 °F (May 19, 4:00 am)41% (May 17, 3:30 pm)30.01 "Hg (May 13, 12:30 am)
Average60 °F75%30.24 "Hg
* Reported May 12 7:00 pm — May 27 7:30 pm, Sydney Central Business District. Weather by CustomWeather, © 2024

Note: Actual official high and low records may vary slightly from our data, if they occured in-between our weather recording intervals... More about our weather records

Sydney Central Business District Weather History for the Previous 24 Hours

Scroll right to see more
 ConditionsComfort  
Time TempWeatherWind HumidityBarometerVisibility
7:30 pm
Mon, May 27
59 °FPassing clouds.5 mph77%30.27 "HgN/A
7:00 pm61 °FPassing clouds.5 mph77%30.27 "HgN/A
6:30 pm61 °FPassing clouds.6 mph77%30.27 "HgN/A
6:00 pm63 °FPassing clouds.7 mph73%30.27 "HgN/A
5:00 pm63 °FPassing clouds.10 mph73%30.24 "HgN/A
4:30 pm63 °FSunny.10 mph73%30.24 "Hg10 mi
4:00 pm64 °FSunny.12 mph68%30.24 "Hg10 mi
3:30 pm64 °FSunny.12 mph68%30.24 "Hg10 mi
3:00 pm64 °FPassing clouds.10 mph73%30.24 "HgN/A
2:30 pm64 °FPassing clouds.10 mph68%30.21 "HgN/A
2:00 pm64 °FPassing clouds.10 mph68%30.21 "HgN/A
1:30 pm64 °FSunny.13 mph64%30.21 "Hg10 mi
1:00 pm64 °FPassing clouds.14 mph64%30.21 "HgN/A
12:30 pm64 °FPassing clouds.14 mph60%30.24 "HgN/A
12:00 pm66 °FSunny.12 mph52%30.24 "Hg10 mi
11:30 am64 °FSunny.10 mph52%30.24 "Hg10 mi
11:00 am66 °FSunny.8 mph52%30.27 "Hg10 mi
10:30 am64 °FSunny.9 mph52%30.27 "Hg10 mi
10:00 am63 °FSunny.8 mph56%30.27 "Hg10 mi
9:30 am61 °FSunny.8 mph59%30.27 "Hg10 mi
9:00 am59 °FSunny.9 mph63%30.27 "Hg10 mi
8:30 am57 °FSunny.8 mph67%30.27 "Hg10 mi
8:00 am55 °FSunny.8 mph72%30.27 "Hg10 mi
7:30 am54 °FSunny.8 mph77%30.24 "Hg10 mi
7:00 am52 °FSunny.9 mph82%30.24 "Hg10 mi
6:30 am52 °FClear.8 mph82%30.24 "Hg10 mi
6:00 am52 °FClear.8 mph88%30.24 "Hg10 mi
5:30 am52 °FClear.9 mph82%30.24 "HgN/A
4:30 am52 °FClear.7 mph88%30.21 "HgN/A
4:00 am52 °FClear.7 mph88%30.21 "HgN/A
3:00 am52 °FClear.8 mph88%30.21 "HgN/A
2:30 am54 °FClear.9 mph88%30.21 "HgN/A
2:00 am54 °FClear.8 mph88%30.21 "HgN/A
1:30 am54 °FClear.8 mph88%30.21 "HgN/A
1:00 am54 °FClear.9 mph88%30.24 "HgN/A
12:00 am55 °FClear.8 mph82%30.24 "HgN/A
11:30 pm
Sun, May 26
55 °FClear.7 mph82%30.24 "HgN/A
11:00 pm57 °FClear.6 mph77%30.24 "HgN/A
10:00 pm57 °FPassing clouds.6 mph82%30.24 "HgN/A
9:00 pm59 °FClear.2 mph77%30.24 "Hg10 mi
Weather by CustomWeather, © 2024

See weather overview